createdAt,value
2018-04-06T00:00:53.720Z,54.00
2018-04-06T00:03:21.411Z,54.00
2018-04-06T00:05:48.990Z,54.00
2018-04-06T00:08:18.906Z,53.90
2018-04-06T00:10:46.530Z,53.80
2018-04-06T00:13:14.174Z,53.80
2018-04-06T00:15:41.767Z,53.60
2018-04-06T00:18:10.215Z,53.90
2018-04-06T00:20:37.884Z,53.80
2018-04-06T00:23:05.575Z,53.90
2018-04-06T00:25:33.242Z,54.00
2018-04-06T00:28:00.842Z,54.20
2018-04-06T00:30:29.223Z,54.50
2018-04-06T00:32:57.588Z,54.50
2018-04-06T00:35:25.259Z,54.50
2018-04-06T00:37:54.119Z,54.40
2018-04-06T00:40:21.735Z,54.40
2018-04-06T00:42:49.893Z,54.30
2018-04-06T00:45:17.551Z,54.50
2018-04-06T00:47:46.493Z,54.60
2018-04-06T00:50:14.084Z,54.50
2018-04-06T00:52:41.707Z,54.70
2018-04-06T00:55:09.318Z,54.70
2018-04-06T00:57:36.952Z,54.70
2018-04-06T01:00:04.538Z,54.70
2018-04-06T01:02:32.164Z,54.70
2018-04-06T01:05:00.644Z,54.80
2018-04-06T01:07:28.223Z,54.80
2018-04-06T01:09:55.786Z,54.80
2018-04-06T01:12:23.472Z,55.10
2018-04-06T01:14:52.171Z,55.40
2018-04-06T01:17:20.623Z,56.00
2018-04-06T01:19:48.217Z,55.80
2018-04-06T01:22:15.816Z,56.00
2018-04-06T01:24:43.375Z,56.10
2018-04-06T01:27:10.988Z,56.70
2018-04-06T01:29:39.139Z,56.30
2018-04-06T01:32:06.734Z,56.20
2018-04-06T01:34:35.099Z,56.20
2018-04-06T01:37:02.780Z,56.10
2018-04-06T01:39:30.351Z,56.30
2018-04-06T01:41:57.964Z,56.20
2018-04-06T01:44:25.543Z,56.00
2018-04-06T01:46:53.211Z,55.90
2018-04-06T01:49:20.870Z,56.10
2018-04-06T01:51:49.706Z,56.80
2018-04-06T01:54:17.300Z,56.70
2018-04-06T01:56:44.916Z,56.90
2018-04-06T01:59:12.520Z,56.70
2018-04-06T02:01:40.130Z,56.60
2018-04-06T02:04:07.734Z,56.40
2018-04-06T02:06:36.108Z,55.90
2018-04-06T02:09:03.713Z,55.90
2018-04-06T02:11:31.324Z,55.70
2018-04-06T02:13:58.907Z,55.60
2018-04-06T02:16:26.566Z,55.70
2018-04-06T02:18:54.235Z,56.00
2018-04-06T02:21:21.835Z,55.80
2018-04-06T02:23:49.469Z,55.80
2018-04-06T02:26:17.136Z,55.80
2018-04-06T02:28:44.787Z,56.00
2018-04-06T02:31:13.215Z,56.00
2018-04-06T02:33:40.927Z,55.80
2018-04-06T02:36:09.579Z,55.80
2018-04-06T02:38:37.281Z,55.90
2018-04-06T02:41:04.908Z,56.10
2018-04-06T02:43:32.513Z,56.10
2018-04-06T02:46:00.133Z,56.10
2018-04-06T02:48:29.346Z,56.00
2018-04-06T02:50:57.008Z,56.00
2018-04-06T02:53:24.722Z,56.00
2018-04-06T02:55:53.034Z,56.30
2018-04-06T02:58:20.695Z,55.90
2018-04-06T03:00:48.275Z,56.10
2018-04-06T03:03:15.973Z,56.10
2018-04-06T03:05:43.551Z,56.50
2018-04-06T03:08:14.106Z,56.50
2018-04-06T03:10:41.727Z,56.60
2018-04-06T03:13:09.344Z,56.90
2018-04-06T03:15:36.983Z,56.90
2018-04-06T03:18:04.648Z,56.90
2018-04-06T03:20:32.359Z,56.80
2018-04-06T03:23:00.019Z,57.10
2018-04-06T03:25:27.590Z,56.20
2018-04-06T03:27:55.191Z,56.10
2018-04-06T03:30:22.784Z,56.00
2018-04-06T03:32:51.319Z,56.10
2018-04-06T03:35:18.911Z,56.00
2018-04-06T03:37:46.501Z,56.30
2018-04-06T03:40:14.127Z,56.10
2018-04-06T03:42:41.727Z,56.10
2018-04-06T03:45:09.331Z,56.20
2018-04-06T03:47:38.137Z,56.40
2018-04-06T03:50:05.747Z,56.50
2018-04-06T03:52:33.879Z,56.40
2018-04-06T03:55:02.971Z,56.40
2018-04-06T03:57:30.927Z,56.60
2018-04-06T03:59:58.521Z,56.30
2018-04-06T04:02:26.614Z,56.30
2018-04-06T04:04:54.284Z,56.20
2018-04-06T04:07:21.882Z,56.10
2018-04-06T04:09:49.516Z,56.00
2018-04-06T04:12:17.085Z,56.40
2018-04-06T04:14:46.729Z,56.20
2018-04-06T04:17:15.087Z,56.50
2018-04-06T04:19:42.708Z,56.50
2018-04-06T04:22:10.865Z,56.40
2018-04-06T04:24:39.506Z,56.70
2018-04-06T04:27:07.156Z,56.30
2018-04-06T04:29:34.762Z,56.20
2018-04-06T04:32:03.186Z,56.50
2018-04-06T04:34:30.892Z,56.50
2018-04-06T04:36:58.485Z,56.50
2018-04-06T04:39:26.330Z,56.70
2018-04-06T04:41:54.851Z,56.70
2018-04-06T04:44:23.329Z,56.10
2018-04-06T04:46:50.940Z,56.40
2018-04-06T04:49:19.314Z,56.50
2018-04-06T04:51:47.046Z,56.40
2018-04-06T04:54:14.729Z,56.30
2018-04-06T04:56:42.375Z,56.20
2018-04-06T04:59:10.746Z,56.40
2018-04-06T05:01:39.511Z,56.40
2018-04-06T05:04:07.123Z,56.30
2018-04-06T05:06:35.560Z,56.40
2018-04-06T05:09:03.183Z,56.20
2018-04-06T05:11:31.648Z,56.80
2018-04-06T05:13:59.215Z,56.20
2018-04-06T05:16:26.860Z,56.30
2018-04-06T05:18:54.441Z,56.50
2018-04-06T05:21:22.118Z,56.60
2018-04-06T05:23:49.723Z,56.80
2018-04-06T05:26:17.384Z,56.90
2018-04-06T05:28:45.038Z,57.00
2018-04-06T05:31:12.726Z,57.20
2018-04-06T05:33:40.373Z,57.10
2018-04-06T05:36:08.020Z,57.20
2018-04-06T05:38:36.480Z,57.20
2018-04-06T05:41:04.854Z,57.10
2018-04-06T05:43:32.446Z,57.00
2018-04-06T05:46:00.871Z,57.00
2018-04-06T05:48:29.196Z,57.10
2018-04-06T05:50:56.835Z,57.00
2018-04-06T05:53:25.272Z,57.10
2018-04-06T05:55:52.883Z,57.10
2018-04-06T05:58:21.321Z,57.40
2018-04-06T06:00:48.932Z,57.10
2018-04-06T06:03:16.521Z,57.20
2018-04-06T06:05:44.947Z,57.40
2018-04-06T06:08:12.553Z,57.30
2018-04-06T06:10:40.192Z,57.70
2018-04-06T06:13:07.812Z,57.90
2018-04-06T06:15:35.449Z,57.80
2018-04-06T06:18:03.007Z,57.90
2018-04-06T06:20:30.720Z,58.10
2018-04-06T06:22:58.341Z,58.20
2018-04-06T06:25:26.737Z,58.50
2018-04-06T06:27:54.450Z,58.30
2018-04-06T06:30:23.020Z,58.40
2018-04-06T06:32:50.606Z,58.30
2018-04-06T06:35:18.877Z,58.50
2018-04-06T06:37:46.468Z,58.60
2018-04-06T06:40:14.063Z,58.50
2018-04-06T06:42:41.669Z,58.50
2018-04-06T06:45:10.579Z,58.60
2018-04-06T06:47:38.977Z,58.60
2018-04-06T06:50:07.332Z,58.70
2018-04-06T06:52:34.981Z,58.50
2018-04-06T06:55:02.607Z,58.60
2018-04-06T06:57:30.959Z,58.80
2018-04-06T06:59:58.580Z,58.80
2018-04-06T07:02:26.230Z,59.00
2018-04-06T07:04:53.835Z,58.90
2018-04-06T07:07:21.477Z,59.50
2018-04-06T07:09:49.084Z,59.10
2018-04-06T07:12:16.693Z,59.50
2018-04-06T07:14:45.125Z,59.80
2018-04-06T07:17:12.750Z,59.80
2018-04-06T07:19:40.399Z,59.90
2018-04-06T07:22:08.018Z,59.70
2018-04-06T07:24:35.699Z,59.70
2018-04-06T07:27:04.251Z,59.50
2018-04-06T07:29:32.878Z,59.70
2018-04-06T07:32:00.452Z,60.20
2018-04-06T07:34:28.082Z,60.00
2018-04-06T07:36:55.702Z,59.80
2018-04-06T07:39:23.300Z,59.50
2018-04-06T07:41:51.801Z,59.40
2018-04-06T07:44:20.227Z,59.20
2018-04-06T07:46:48.531Z,59.20
2018-04-06T07:49:16.193Z,58.90
2018-04-06T07:51:43.939Z,58.70
2018-04-06T07:54:12.192Z,58.70
2018-04-06T07:56:40.689Z,58.80
2018-04-06T07:59:08.385Z,58.70
2018-04-06T08:01:36.817Z,58.90
2018-04-06T08:04:06.247Z,59.00
2018-04-06T08:06:33.915Z,59.10
2018-04-06T08:09:01.510Z,59.00
2018-04-06T08:11:29.892Z,58.70
2018-04-06T08:14:25.239Z,58.50
2018-04-06T08:16:55.716Z,58.20
2018-04-06T08:19:25.292Z,58.20
2018-04-06T08:21:54.373Z,57.80
2018-04-06T08:24:22.556Z,57.60
2018-04-06T08:26:50.179Z,57.60
2018-04-06T08:29:17.831Z,57.60
2018-04-06T08:31:45.483Z,57.50
2018-04-06T08:34:13.178Z,57.30
2018-04-06T08:36:40.778Z,57.00
2018-04-06T08:39:08.413Z,56.50
2018-04-06T08:41:36.043Z,56.60
2018-04-06T08:44:05.102Z,56.20
2018-04-06T08:46:32.735Z,56.10
2018-04-06T08:49:03.189Z,56.30
2018-04-06T08:51:33.282Z,56.00
2018-04-06T08:54:01.598Z,55.90
2018-04-06T08:56:30.435Z,55.40
2018-04-06T08:58:58.244Z,55.10
2018-04-06T09:01:26.752Z,54.90
2018-04-06T09:03:55.261Z,54.50
2018-04-06T09:06:22.929Z,54.40
2018-04-06T09:08:50.811Z,54.50
2018-04-06T09:11:18.610Z,54.30
2018-04-06T09:13:46.438Z,54.40
2018-04-06T09:16:15.195Z,54.30
2018-04-06T09:18:42.884Z,53.90
2018-04-06T09:21:10.704Z,53.60
2018-04-06T09:23:38.333Z,53.40
2018-04-06T09:26:08.341Z,52.90
2018-04-06T09:28:35.948Z,52.80
2018-04-06T09:31:04.409Z,52.30
2018-04-06T09:33:33.038Z,52.20
2018-04-06T09:36:00.794Z,51.40
2018-04-06T09:38:28.482Z,51.40
2018-04-06T09:40:56.123Z,50.80
2018-04-06T09:43:23.774Z,50.70
2018-04-06T09:45:53.238Z,49.90
2018-04-06T09:48:23.484Z,48.70
2018-04-06T09:50:54.199Z,48.50
2018-04-06T09:53:22.727Z,48.40
2018-04-06T09:55:54.972Z,47.60
2018-04-06T09:58:26.332Z,47.60
2018-04-06T10:01:01.150Z,47.50
2018-04-06T10:03:32.944Z,46.80
2018-04-06T10:06:00.644Z,45.90
2018-04-06T10:08:28.235Z,45.50
2018-04-06T10:10:55.880Z,44.60
2018-04-06T10:13:23.547Z,44.80
2018-04-06T10:15:51.192Z,44.70
2018-04-06T10:18:19.606Z,42.50
2018-04-06T10:20:47.330Z,42.40
2018-04-06T10:23:15.572Z,41.40
2018-04-06T10:25:43.284Z,41.90
2018-04-06T10:28:11.343Z,41.70
2018-04-06T10:30:41.249Z,41.50
2018-04-06T10:33:08.921Z,40.80
2018-04-06T10:35:36.581Z,39.80
2018-04-06T10:38:06.671Z,39.90
2018-04-06T10:40:35.670Z,40.30
2018-04-06T10:43:03.326Z,39.30
2018-04-06T10:45:30.949Z,39.40
2018-04-06T10:48:00.312Z,39.20
2018-04-06T10:50:28.006Z,39.10
2018-04-06T10:52:55.753Z,38.80
2018-04-06T10:55:24.256Z,38.70
2018-04-06T10:57:52.712Z,38.20
2018-04-06T11:00:21.357Z,38.00
2018-04-06T11:02:50.716Z,37.90
2018-04-06T11:05:18.556Z,37.80
2018-04-06T11:07:47.467Z,37.50
2018-04-06T11:10:16.260Z,37.30
2018-04-06T11:12:49.334Z,36.60
2018-04-06T11:15:18.937Z,36.30
2018-04-06T11:17:47.721Z,36.20
2018-04-06T11:20:16.848Z,36.60
2018-04-06T11:22:46.374Z,35.50
2018-04-06T11:25:15.584Z,35.40
2018-04-06T11:27:45.310Z,36.30
2018-04-06T11:30:13.696Z,35.40
2018-04-06T11:32:43.279Z,35.50
2018-04-06T11:35:11.799Z,35.10
2018-04-06T11:37:42.298Z,35.00
2018-04-06T11:40:10.013Z,34.50
2018-04-06T11:42:37.677Z,34.60
2018-04-06T11:45:05.312Z,33.70
2018-04-06T11:47:33.711Z,33.60
2018-04-06T11:50:01.487Z,33.60
2018-04-06T11:52:29.112Z,32.30
2018-04-06T11:54:56.750Z,31.80
2018-04-06T11:59:58.852Z,32.50
2018-04-06T12:02:26.572Z,32.40
2018-04-06T12:04:54.321Z,34.00
2018-04-06T12:07:21.989Z,33.50
2018-04-06T12:09:49.612Z,33.40
2018-04-06T12:12:17.262Z,32.40
2018-04-06T12:14:44.835Z,31.10
2018-04-06T12:17:12.469Z,30.90
2018-04-06T12:19:40.080Z,31.60
2018-04-06T12:22:07.680Z,30.90
2018-04-06T12:24:36.075Z,30.70
2018-04-06T12:27:04.499Z,31.60
2018-04-06T12:29:32.137Z,31.50
2018-04-06T12:32:00.529Z,30.80
2018-04-06T12:34:28.891Z,31.20
2018-04-06T12:36:56.458Z,31.00
2018-04-06T12:39:24.120Z,31.10
2018-04-06T12:41:51.731Z,31.40
2018-04-06T12:44:19.350Z,31.60
2018-04-06T12:46:47.007Z,31.00
2018-04-06T12:49:14.631Z,30.90
2018-04-06T12:51:43.038Z,30.20
2018-04-06T12:54:10.694Z,30.10
2018-04-06T12:56:38.608Z,30.20
2018-04-06T12:59:06.985Z,30.70
2018-04-06T13:01:34.622Z,30.60
2018-04-06T13:04:02.223Z,30.50
2018-04-06T13:06:30.623Z,30.30
2018-04-06T13:08:58.217Z,30.20
2018-04-06T13:11:25.833Z,31.10
2018-04-06T13:13:53.461Z,31.10
2018-04-06T13:16:21.030Z,30.40
2018-04-06T13:18:49.411Z,30.00
2018-04-06T13:21:16.986Z,30.00
2018-04-06T13:23:44.569Z,30.00
2018-04-06T13:26:12.926Z,29.80
2018-04-06T13:28:40.548Z,29.70
2018-04-06T13:31:08.347Z,29.90
2018-04-06T13:33:36.570Z,30.00
2018-04-06T13:36:04.141Z,30.00
2018-04-06T13:38:31.814Z,30.10
2018-04-06T13:40:59.470Z,29.70
2018-04-06T13:43:27.105Z,29.40
2018-04-06T13:45:55.491Z,29.40
2018-04-06T13:48:23.299Z,29.30
2018-04-06T13:50:50.912Z,28.70
2018-04-06T13:53:18.493Z,28.50
2018-04-06T13:55:46.123Z,28.50
2018-04-06T13:58:13.726Z,28.80
2018-04-06T14:00:41.403Z,29.20
2018-04-06T14:03:09.034Z,29.00
2018-04-06T14:05:36.710Z,28.80
2018-04-06T14:08:04.315Z,28.20
2018-04-06T14:10:31.927Z,27.70
2018-04-06T14:13:00.425Z,27.90
2018-04-06T14:15:29.070Z,27.70
2018-04-06T14:17:57.506Z,27.60
2018-04-06T14:20:25.947Z,27.90
2018-04-06T14:22:53.546Z,27.90
2018-04-06T14:25:21.199Z,28.10
2018-04-06T14:27:48.842Z,27.90
2018-04-06T14:30:16.508Z,26.90
2018-04-06T14:32:44.099Z,26.30
2018-04-06T14:35:12.089Z,26.00
2018-04-06T14:37:39.783Z,25.70
2018-04-06T14:40:07.391Z,26.30
2018-04-06T14:42:35.736Z,26.40
2018-04-06T14:45:04.302Z,25.90
2018-04-06T14:47:31.912Z,26.20
2018-04-06T14:49:59.640Z,26.20
2018-04-06T14:52:27.257Z,26.10
2018-04-06T14:54:54.854Z,26.40
2018-04-06T14:57:22.483Z,26.20
2018-04-06T14:59:50.176Z,26.10
2018-04-06T15:02:17.766Z,26.40
2018-04-06T15:04:46.369Z,26.20
2018-04-06T15:07:14.623Z,25.90
2018-04-06T15:09:42.537Z,26.00
2018-04-06T15:12:10.574Z,26.10
2018-04-06T15:14:38.363Z,25.90
2018-04-06T15:17:05.979Z,26.20
2018-04-06T15:19:34.400Z,25.90
2018-04-06T15:22:03.041Z,25.90
2018-04-06T15:24:30.775Z,26.00
2018-04-06T15:26:58.351Z,25.20
2018-04-06T15:29:26.046Z,25.60
2018-04-06T15:31:53.759Z,25.80
2018-04-06T15:34:22.305Z,25.30
2018-04-06T15:36:54.523Z,25.20
2018-04-06T15:39:22.201Z,25.10
2018-04-06T15:41:49.822Z,25.50
2018-04-06T15:44:17.474Z,25.40
2018-04-06T15:46:45.052Z,25.30
2018-04-06T15:49:12.652Z,25.80
2018-04-06T15:51:40.300Z,25.50
2018-04-06T15:54:07.907Z,25.80
2018-04-06T15:56:40.952Z,25.70
2018-04-06T15:59:08.627Z,25.70
2018-04-06T16:01:37.484Z,25.60
2018-04-06T16:04:05.147Z,25.20
2018-04-06T16:06:33.229Z,25.40
2018-04-06T16:09:00.972Z,25.90
2018-04-06T16:11:28.655Z,26.10
2018-04-06T16:13:56.255Z,25.90
2018-04-06T16:16:24.696Z,25.90
2018-04-06T16:18:53.058Z,25.80
2018-04-06T16:21:23.351Z,25.50
2018-04-06T16:23:51.158Z,25.50
2018-04-06T16:26:19.231Z,25.10
2018-04-06T16:28:47.607Z,25.30
2018-04-06T16:31:17.105Z,25.20
2018-04-06T16:33:44.792Z,25.30
2018-04-06T16:36:18.361Z,25.60
2018-04-06T16:38:50.997Z,25.80
2018-04-06T16:41:19.618Z,25.80
2018-04-06T16:43:50.244Z,25.60
2018-04-06T16:46:18.496Z,25.30
2018-04-06T16:48:46.910Z,26.00
2018-04-06T16:51:14.656Z,26.00
2018-04-06T16:53:43.118Z,26.00
2018-04-06T16:56:11.599Z,26.00
2018-04-06T16:58:39.642Z,25.90
2018-04-06T17:01:08.528Z,25.90
2018-04-06T17:03:36.924Z,25.90
2018-04-06T17:06:04.686Z,25.80
2018-04-06T17:08:32.388Z,25.70
2018-04-06T17:11:02.444Z,25.80
2018-04-06T17:13:33.534Z,26.00
2018-04-06T17:16:01.288Z,26.00
2018-04-06T17:18:29.730Z,25.80
2018-04-06T17:20:57.843Z,25.60
2018-04-06T17:23:25.576Z,26.00
2018-04-06T17:25:54.929Z,25.90
2018-04-06T17:28:22.522Z,26.10
2018-04-06T17:30:50.680Z,26.20
2018-04-06T17:33:19.202Z,26.30
2018-04-06T17:35:46.808Z,26.40
2018-04-06T17:38:15.920Z,27.10
2018-04-06T17:40:44.279Z,26.70
2018-04-06T17:43:12.604Z,26.60
2018-04-06T17:45:43.355Z,26.60
2018-04-06T17:48:11.876Z,26.60
2018-04-06T17:50:39.480Z,26.80
2018-04-06T17:53:07.080Z,26.80
2018-04-06T17:55:35.534Z,27.40
2018-04-06T17:58:03.175Z,27.30
2018-04-06T18:00:30.891Z,27.30
2018-04-06T18:02:58.486Z,27.30
2018-04-06T18:05:26.121Z,27.40
2018-04-06T18:07:53.732Z,27.50
2018-04-06T18:10:21.370Z,27.50
2018-04-06T18:12:49.798Z,27.60
2018-04-06T18:15:17.368Z,27.50
2018-04-06T18:17:45.044Z,27.70
2018-04-06T18:20:13.507Z,27.60
2018-04-06T18:22:42.161Z,27.50
2018-04-06T18:25:10.647Z,28.00
2018-04-06T18:27:39.881Z,27.50
2018-04-06T18:30:07.655Z,27.40
2018-04-06T18:32:35.513Z,27.60
2018-04-06T18:35:03.253Z,27.60
2018-04-06T18:37:31.048Z,27.90
2018-04-06T18:39:59.731Z,28.20
2018-04-06T18:42:27.414Z,28.10
2018-04-06T18:44:56.196Z,28.00
2018-04-06T18:47:24.271Z,28.20
2018-04-06T18:49:51.987Z,28.20
2018-04-06T18:52:20.487Z,28.20
2018-04-06T18:54:48.846Z,28.20
2018-04-06T18:57:17.016Z,28.20
2018-04-06T18:59:45.505Z,28.20
2018-04-06T19:02:13.112Z,28.10
2018-04-06T19:04:40.852Z,27.90
2018-04-06T19:07:08.464Z,28.20
2018-04-06T19:09:36.855Z,28.30
2018-04-06T19:12:04.614Z,28.30
2018-04-06T19:14:32.266Z,28.30
2018-04-06T19:16:59.930Z,28.40
2018-04-06T19:19:27.508Z,28.30
2018-04-06T19:21:55.135Z,28.30
2018-04-06T19:24:22.707Z,28.50
2018-04-06T19:26:51.124Z,28.70
2018-04-06T19:29:18.712Z,28.70
2018-04-06T19:31:46.377Z,28.60
2018-04-06T19:34:13.974Z,28.70
2018-04-06T19:36:41.608Z,28.90
2018-04-06T19:39:09.222Z,29.00
2018-04-06T19:41:36.852Z,29.00
2018-04-06T19:44:05.353Z,29.30
2018-04-06T19:46:33.744Z,29.40
2018-04-06T19:49:02.326Z,29.40
2018-04-06T19:51:30.769Z,29.40
2018-04-06T19:53:58.405Z,29.30
2018-04-06T19:56:26.080Z,29.40
2018-04-06T19:58:53.743Z,29.40
2018-04-06T20:01:22.107Z,29.50
2018-04-06T20:03:49.676Z,29.50
2018-04-06T20:06:17.257Z,29.60
2018-04-06T20:08:44.899Z,29.70
2018-04-06T20:11:12.499Z,29.70
2018-04-06T20:13:40.083Z,29.90
2018-04-06T20:16:08.520Z,29.80
2018-04-06T20:18:37.268Z,29.70
2018-04-06T20:21:04.974Z,29.80
2018-04-06T20:23:33.433Z,29.80
2018-04-06T20:26:01.534Z,29.80
2018-04-06T20:28:29.175Z,29.90
2018-04-06T20:30:57.992Z,29.90
2018-04-06T20:33:25.818Z,29.90
2018-04-06T20:35:53.774Z,29.90
2018-04-06T20:38:22.288Z,30.10
2018-04-06T20:40:49.932Z,30.00
2018-04-06T20:43:17.609Z,30.00
2018-04-06T20:45:45.988Z,30.20
2018-04-06T20:48:13.710Z,30.00
2018-04-06T20:50:41.318Z,30.10
2018-04-06T20:53:09.012Z,30.10
2018-04-06T20:55:36.791Z,30.10
2018-04-06T20:58:04.594Z,30.30
2018-04-06T21:00:33.024Z,30.50
2018-04-06T21:03:00.889Z,30.40
2018-04-06T21:05:28.659Z,30.40
2018-04-06T21:07:56.516Z,30.30
2018-04-06T21:10:25.302Z,30.50
2018-04-06T21:12:53.787Z,31.10
2018-04-06T21:15:21.530Z,31.00
2018-04-06T21:17:49.234Z,31.10
2018-04-06T21:20:16.874Z,31.30
2018-04-06T21:22:44.550Z,31.50
2018-04-06T21:25:12.263Z,31.50
2018-04-06T21:27:41.888Z,31.60
2018-04-06T21:30:09.521Z,31.50
2018-04-06T21:32:37.201Z,31.60
2018-04-06T21:35:04.844Z,31.70
2018-04-06T21:37:32.470Z,31.70
2018-04-06T21:40:00.105Z,31.80
2018-04-06T21:42:27.809Z,31.90
2018-04-06T21:44:55.503Z,32.10
2018-04-06T21:47:23.945Z,32.20
2018-04-06T21:49:51.594Z,32.10
2018-04-06T21:52:20.010Z,32.70
2018-04-06T21:54:48.303Z,32.10
2018-04-06T21:57:16.077Z,32.10
2018-04-06T21:59:43.664Z,32.10
2018-04-06T22:02:11.463Z,32.30
2018-04-06T22:04:39.496Z,32.50
2018-04-06T22:07:07.177Z,32.70
2018-04-06T22:09:34.766Z,32.80
2018-04-06T22:12:02.447Z,33.00
2018-04-06T22:14:30.170Z,33.00
2018-04-06T22:16:58.548Z,33.10
2018-04-06T22:19:26.217Z,33.00
2018-04-06T22:21:53.816Z,33.10
2018-04-06T22:24:22.195Z,33.00
2018-04-06T22:26:50.578Z,33.00
2018-04-06T22:29:18.962Z,33.10
2018-04-06T22:31:47.815Z,33.10
2018-04-06T22:34:17.611Z,33.50
2018-04-06T22:36:45.765Z,33.40
2018-04-06T22:39:13.951Z,33.40
2018-04-06T22:41:42.230Z,33.60
2018-04-06T22:44:10.261Z,33.70
2018-04-06T22:46:39.100Z,33.80
2018-04-06T22:49:07.267Z,33.80
2018-04-06T22:51:36.201Z,33.70
2018-04-06T22:54:05.283Z,33.80
2018-04-06T22:56:33.408Z,33.80
2018-04-06T22:59:01.892Z,33.90
2018-04-06T23:01:30.016Z,33.90
2018-04-06T23:03:58.483Z,34.00
2018-04-06T23:06:27.400Z,34.10
2018-04-06T23:08:56.292Z,34.00
2018-04-06T23:11:24.492Z,34.00
2018-04-06T23:13:52.176Z,34.70
2018-04-06T23:16:21.299Z,34.10
2018-04-06T23:18:50.433Z,34.20
2018-04-06T23:21:18.709Z,34.20
2018-04-06T23:23:47.632Z,34.50
2018-04-06T23:26:15.761Z,34.40
2018-04-06T23:28:45.345Z,34.50
2018-04-06T23:31:14.331Z,34.70
2018-04-06T23:33:43.185Z,34.80
2018-04-06T23:36:11.575Z,35.80
2018-04-06T23:38:39.814Z,35.10
2018-04-06T23:41:08.385Z,35.40
2018-04-06T23:43:37.251Z,35.50
2018-04-06T23:46:05.328Z,35.60
2018-04-06T23:48:34.649Z,35.70
2018-04-06T23:51:03.581Z,35.70
2018-04-06T23:53:32.596Z,35.90
2018-04-06T23:56:01.934Z,36.00
2018-04-06T23:58:30.118Z,36.00
